createdAt,value
2023-04-12T00:01:01.058Z,10.16
2023-04-12T00:03:35.013Z,10.15
2023-04-12T00:06:10.406Z,10.15
2023-04-12T00:08:47.119Z,10.08
2023-04-12T00:11:20.432Z,10.10
2023-04-12T00:13:55.524Z,10.11
2023-04-12T00:16:30.128Z,10.11
2023-04-12T00:19:03.687Z,10.10
2023-04-12T00:21:38.130Z,10.08
2023-04-12T00:24:12.365Z,10.11
2023-04-12T00:26:45.508Z,10.07
2023-04-12T00:29:18.439Z,10.11
2023-04-12T00:31:51.337Z,10.14
2023-04-12T00:34:24.418Z,10.13
2023-04-12T00:36:59.099Z,10.15
2023-04-12T00:39:39.606Z,10.15
2023-04-12T00:42:12.564Z,10.14
2023-04-12T00:44:45.813Z,10.17
2023-04-12T00:47:18.816Z,10.16
2023-04-12T00:49:52.147Z,10.13
2023-04-12T00:52:28.206Z,10.15
2023-04-12T00:55:01.190Z,10.13
2023-04-12T00:57:36.647Z,10.12
2023-04-12T01:00:13.669Z,10.16
2023-04-12T01:02:48.484Z,10.15
2023-04-12T01:05:24.126Z,10.19
2023-04-12T01:08:05.014Z,10.16
2023-04-12T01:10:42.803Z,10.18
2023-04-12T01:13:21.753Z,10.20
2023-04-12T01:15:59.509Z,10.20
2023-04-12T01:18:34.777Z,10.20
2023-04-12T01:21:10.353Z,10.24
2023-04-12T01:23:59.494Z,10.25
2023-04-12T01:26:34.806Z,10.21
2023-04-12T01:29:11.940Z,10.25
2023-04-12T01:31:49.593Z,10.22
2023-04-12T01:34:24.260Z,10.22
2023-04-12T01:36:58.551Z,10.28
2023-04-12T01:39:32.506Z,10.24
2023-04-12T01:42:06.722Z,10.19
2023-04-12T01:44:41.339Z,10.20
2023-04-12T01:47:14.637Z,10.30
2023-04-12T01:49:51.084Z,10.26
2023-04-12T01:52:24.560Z,10.24
2023-04-12T01:54:59.334Z,10.24
2023-04-12T01:57:32.757Z,10.22
2023-04-12T02:00:10.769Z,10.19
2023-04-12T02:02:45.047Z,10.15
2023-04-12T02:05:19.087Z,10.14
2023-04-12T02:07:52.489Z,10.12
2023-04-12T02:10:32.187Z,10.08
2023-04-12T02:13:05.578Z,10.11
2023-04-12T02:15:40.617Z,10.10
2023-04-12T02:18:17.038Z,10.10
2023-04-12T02:20:50.887Z,10.09
2023-04-12T02:23:23.805Z,10.14
2023-04-12T02:25:56.763Z,10.10
2023-04-12T02:28:29.711Z,10.17
2023-04-12T02:31:04.920Z,10.22
2023-04-12T02:33:38.211Z,10.23
2023-04-12T02:36:11.683Z,10.29
2023-04-12T02:38:44.706Z,10.28
2023-04-12T02:41:18.460Z,10.23
2023-04-12T02:43:51.948Z,10.22
2023-04-12T02:46:27.327Z,10.24
2023-04-12T02:49:00.690Z,10.18
2023-04-12T02:51:33.810Z,10.18
2023-04-12T02:54:07.032Z,10.09
2023-04-12T02:56:40.618Z,10.05
2023-04-12T02:59:13.543Z,10.01
2023-04-12T03:01:50.844Z,9.99
2023-04-12T03:04:30.786Z,9.97
2023-04-12T03:07:03.866Z,10.00
2023-04-12T03:09:38.761Z,9.96
2023-04-12T03:12:12.300Z,9.97
2023-04-12T03:14:45.825Z,9.96
2023-04-12T03:17:20.898Z,9.98
2023-04-12T03:19:54.219Z,10.00
2023-04-12T03:22:27.086Z,9.97
2023-04-12T03:25:00.169Z,10.02
2023-04-12T03:27:33.372Z,10.01
2023-04-12T03:30:10.465Z,10.00
2023-04-12T03:32:45.658Z,10.01
2023-04-12T03:35:18.922Z,10.00
2023-04-12T03:37:51.883Z,9.99
2023-04-12T03:40:24.894Z,10.02
2023-04-12T03:43:00.024Z,9.99
2023-04-12T03:45:35.133Z,10.03
2023-04-12T03:48:11.114Z,10.06
2023-04-12T03:50:45.351Z,10.05
2023-04-12T03:53:18.328Z,10.06
2023-04-12T03:55:51.634Z,10.07
2023-04-12T03:58:25.092Z,10.06
2023-04-12T04:00:58.224Z,10.09
2023-04-12T04:03:35.184Z,10.13
2023-04-12T04:06:09.339Z,10.13
2023-04-12T04:08:42.605Z,10.10
2023-04-12T04:11:16.402Z,10.10
2023-04-12T04:13:49.856Z,10.10
2023-04-12T04:16:23.349Z,10.09
2023-04-12T04:18:57.738Z,10.16
2023-04-12T04:21:32.232Z,10.16
2023-04-12T04:24:07.085Z,10.17
2023-04-12T04:26:40.516Z,10.13
2023-04-12T04:29:13.358Z,10.15
2023-04-12T04:31:46.659Z,10.17
2023-04-12T04:34:22.210Z,10.13
2023-04-12T04:36:55.593Z,10.11
2023-04-12T04:39:29.438Z,10.10
2023-04-12T04:42:02.635Z,10.10
2023-04-12T04:44:37.301Z,10.09
2023-04-12T04:47:10.458Z,10.13
2023-04-12T04:49:45.487Z,10.12
2023-04-12T04:52:19.677Z,10.12
2023-04-12T04:54:57.498Z,10.10
2023-04-12T04:57:30.777Z,10.12
2023-04-12T05:00:11.000Z,10.12
2023-04-12T05:02:45.902Z,10.13
2023-04-12T05:05:23.212Z,10.14
2023-04-12T05:07:56.714Z,10.19
2023-04-12T05:10:29.802Z,10.20
2023-04-12T05:13:03.334Z,10.20
2023-04-12T05:15:36.725Z,10.19
2023-04-12T05:18:10.389Z,10.23
2023-04-12T05:20:45.579Z,10.23
2023-04-12T05:23:18.572Z,10.25
2023-04-12T05:25:51.644Z,10.24
2023-04-12T05:28:24.517Z,10.29
2023-04-12T05:30:57.442Z,10.31
2023-04-12T05:33:33.378Z,10.31
2023-04-12T05:36:08.780Z,10.39
2023-04-12T05:38:42.032Z,10.37
2023-04-12T05:41:14.975Z,10.41
2023-04-12T05:43:48.204Z,10.48
2023-04-12T05:46:21.606Z,10.48
2023-04-12T05:48:55.077Z,10.49
2023-04-12T05:51:40.272Z,10.53
2023-04-12T05:54:14.500Z,10.62
2023-04-12T05:56:47.862Z,10.63
2023-04-12T05:59:21.190Z,10.67
2023-04-12T06:01:54.688Z,10.71
2023-04-12T06:04:42.211Z,10.73
2023-04-12T06:07:22.178Z,10.73
2023-04-12T06:09:55.369Z,10.80
2023-04-12T06:12:29.135Z,10.87
2023-04-12T06:15:02.271Z,10.85
2023-04-12T06:17:35.473Z,10.85
2023-04-12T06:20:09.768Z,10.88
2023-04-12T06:22:44.483Z,10.90
2023-04-12T06:25:17.628Z,10.91
2023-04-12T06:27:50.610Z,11.03
2023-04-12T06:30:23.822Z,11.10
2023-04-12T06:32:57.045Z,11.19
2023-04-12T06:35:30.348Z,11.22
2023-04-12T06:38:05.183Z,11.35
2023-04-12T06:40:38.221Z,11.40
2023-04-12T06:43:11.170Z,11.53
2023-04-12T06:45:44.047Z,11.76
2023-04-12T06:48:17.133Z,11.93
2023-04-12T06:50:50.123Z,11.99
2023-04-12T06:53:24.724Z,12.02
2023-04-12T06:55:57.921Z,12.11
2023-04-12T06:58:31.854Z,12.11
2023-04-12T07:01:07.909Z,12.06
2023-04-12T07:03:41.345Z,12.10
2023-04-12T07:06:25.180Z,11.64
2023-04-12T07:09:00.402Z,12.31
2023-04-12T07:11:33.809Z,12.38
2023-04-12T07:14:07.444Z,12.51
2023-04-12T07:16:40.753Z,12.61
2023-04-12T07:19:14.123Z,12.61
2023-04-12T07:21:47.376Z,12.79
2023-04-12T07:24:21.800Z,12.85
2023-04-12T07:26:55.249Z,12.86
2023-04-12T07:29:28.277Z,12.89
2023-04-12T07:32:01.650Z,12.89
2023-04-12T07:34:35.050Z,12.91
2023-04-12T07:37:08.006Z,12.95
2023-04-12T07:39:42.695Z,12.85
2023-04-12T07:42:15.774Z,12.94
2023-04-12T07:44:48.784Z,12.91
2023-04-12T07:47:22.221Z,12.97
2023-04-12T07:49:56.075Z,12.96
2023-04-12T07:52:29.280Z,13.12
2023-04-12T07:55:03.800Z,13.14
2023-04-12T07:57:36.982Z,13.28
2023-04-12T08:00:11.309Z,13.25
2023-04-12T08:02:45.165Z,13.23
2023-04-12T08:05:18.939Z,13.19
2023-04-12T08:07:52.176Z,13.33
2023-04-12T08:10:26.741Z,13.35
2023-04-12T08:13:01.122Z,13.47
2023-04-12T08:15:36.500Z,13.54
2023-04-12T08:18:10.094Z,13.59
2023-04-12T08:20:44.606Z,13.55
2023-04-12T08:23:17.813Z,13.53
2023-04-12T08:25:52.309Z,13.47
2023-04-12T08:28:28.609Z,13.45
2023-04-12T08:31:02.482Z,13.51
2023-04-12T08:33:38.784Z,13.41
2023-04-12T08:36:12.237Z,13.42
2023-04-12T08:38:53.605Z,13.41
2023-04-12T08:41:28.678Z,13.49
2023-04-12T08:44:01.889Z,13.47
2023-04-12T08:46:37.039Z,13.55
2023-04-12T08:49:11.616Z,13.55
2023-04-12T08:51:46.769Z,13.53
2023-04-12T08:54:20.218Z,13.47
2023-04-12T08:56:55.041Z,13.53
2023-04-12T08:59:28.959Z,13.49
2023-04-12T09:02:03.333Z,13.44
2023-04-12T09:04:48.650Z,13.46
2023-04-12T09:07:23.464Z,13.51
2023-04-12T09:09:57.233Z,13.61
2023-04-12T09:12:32.204Z,13.58
2023-04-12T09:15:10.016Z,13.76
2023-04-12T09:17:43.976Z,13.76
2023-04-12T09:20:25.764Z,14.07
2023-04-12T09:22:58.973Z,14.15
2023-04-12T09:25:39.981Z,14.12
2023-04-12T09:28:22.013Z,14.26
2023-04-12T09:30:55.629Z,13.93
2023-04-12T09:33:35.530Z,13.82
2023-04-12T09:36:13.786Z,13.85
2023-04-12T09:38:59.971Z,14.12
2023-04-12T09:41:33.354Z,14.21
2023-04-12T09:44:08.097Z,14.16
2023-04-12T09:46:56.317Z,14.37
2023-04-12T09:49:37.468Z,14.36
2023-04-12T09:52:11.745Z,14.32
2023-04-12T09:54:45.391Z,14.35
2023-04-12T09:57:18.820Z,14.30
2023-04-12T09:59:54.489Z,14.32
2023-04-12T10:02:28.889Z,14.25
2023-04-12T10:05:02.351Z,14.22
2023-04-12T10:07:37.699Z,14.16
2023-04-12T10:10:12.683Z,14.23
2023-04-12T10:12:47.985Z,14.19
2023-04-12T10:15:22.842Z,14.17
2023-04-12T10:17:57.530Z,14.40
2023-04-12T10:20:31.171Z,14.46
2023-04-12T10:23:04.206Z,14.23
2023-04-12T10:25:39.935Z,14.31
2023-04-12T10:28:17.399Z,14.45
2023-04-12T10:30:53.373Z,14.54
2023-04-12T10:33:27.357Z,14.39
2023-04-12T10:36:04.128Z,14.23
2023-04-12T10:38:46.649Z,14.28
2023-04-12T10:41:20.170Z,14.50
2023-04-12T10:43:53.579Z,14.48
2023-04-12T10:46:50.175Z,14.61
2023-04-12T10:49:23.448Z,14.41
2023-04-12T10:52:12.647Z,14.33
2023-04-12T10:54:45.909Z,14.43
2023-04-12T10:57:37.449Z,14.76
2023-04-12T11:00:11.044Z,14.63
2023-04-12T11:03:02.972Z,14.85
2023-04-12T11:05:54.899Z,14.84
2023-04-12T11:08:31.382Z,15.21
2023-04-12T11:11:05.302Z,15.18
2023-04-12T11:13:40.081Z,15.10
2023-04-12T11:16:14.437Z,14.96
2023-04-12T11:18:48.006Z,14.90
2023-04-12T11:21:21.380Z,14.84
2023-04-12T11:23:56.506Z,14.40
2023-04-12T11:26:32.016Z,13.83
2023-04-12T11:29:08.218Z,13.16
2023-04-12T11:31:41.245Z,13.01
2023-04-12T11:34:16.032Z,12.92
2023-04-12T11:36:56.581Z,12.96
2023-04-12T11:39:32.116Z,12.89
2023-04-12T11:42:08.725Z,13.06
2023-04-12T11:44:56.163Z,13.21
2023-04-12T11:47:30.385Z,13.12
2023-04-12T11:50:03.890Z,12.98
2023-04-12T11:52:36.984Z,12.71
2023-04-12T11:55:11.938Z,12.79
2023-04-12T11:57:52.184Z,12.99
2023-04-12T12:00:27.697Z,13.22
2023-04-12T12:03:07.577Z,13.28
2023-04-12T12:05:42.293Z,13.05
2023-04-12T12:08:15.852Z,12.79
2023-04-12T12:11:06.281Z,12.60
2023-04-12T12:13:45.070Z,12.55
2023-04-12T12:16:18.975Z,12.59
2023-04-12T12:18:52.986Z,12.59
2023-04-12T12:21:26.369Z,12.59
2023-04-12T12:24:01.441Z,12.64
2023-04-12T12:26:37.128Z,12.85
2023-04-12T12:29:18.095Z,12.95
2023-04-12T12:31:52.062Z,13.13
2023-04-12T12:34:25.102Z,13.38
2023-04-12T12:36:58.055Z,13.63
2023-04-12T12:39:31.107Z,13.78
2023-04-12T12:42:06.558Z,13.98
2023-04-12T12:44:39.874Z,14.24
2023-04-12T12:47:14.533Z,14.31
2023-04-12T12:49:48.123Z,14.36
2023-04-12T12:52:21.609Z,14.57
2023-04-12T12:54:54.658Z,14.53
2023-04-12T12:57:29.412Z,14.57
2023-04-12T13:00:03.215Z,14.82
2023-04-12T13:02:36.283Z,14.82
2023-04-12T13:05:11.790Z,14.85
2023-04-12T13:07:45.646Z,14.98
2023-04-12T13:10:18.835Z,15.13
2023-04-12T13:12:54.239Z,15.12
2023-04-12T13:15:27.618Z,15.19
2023-04-12T13:18:01.267Z,15.21
2023-04-12T13:20:34.866Z,15.26
2023-04-12T13:23:07.888Z,15.35
2023-04-12T13:25:40.977Z,15.27
2023-04-12T13:28:16.922Z,15.20
2023-04-12T13:30:50.212Z,15.31
2023-04-12T13:33:23.593Z,15.26
2023-04-12T13:35:56.698Z,15.50
2023-04-12T13:38:29.834Z,15.44
2023-04-12T13:41:03.224Z,15.37
2023-04-12T13:43:37.891Z,15.32
2023-04-12T13:46:13.046Z,15.28
2023-04-12T13:48:46.133Z,15.39
2023-04-12T13:51:19.248Z,15.52
2023-04-12T13:53:52.210Z,15.41
2023-04-12T13:56:25.774Z,15.28
2023-04-12T13:59:00.822Z,15.29
2023-04-12T14:01:33.896Z,15.37
2023-04-12T14:04:07.652Z,15.37
2023-04-12T14:06:40.763Z,15.61
2023-04-12T14:09:23.818Z,15.60
2023-04-12T14:11:58.193Z,15.03
2023-04-12T14:14:33.493Z,15.59
2023-04-12T14:17:06.996Z,15.56
2023-04-12T14:19:40.441Z,15.52
2023-04-12T14:22:13.566Z,15.60
2023-04-12T14:24:46.744Z,15.76
2023-04-12T14:27:19.676Z,15.65
2023-04-12T14:29:54.198Z,15.60
2023-04-12T14:32:27.404Z,15.54
2023-04-12T14:35:01.090Z,15.58
2023-04-12T14:37:34.217Z,15.50
2023-04-12T14:40:08.571Z,15.60
2023-04-12T14:42:41.788Z,15.61
2023-04-12T14:45:17.469Z,15.57
2023-04-12T14:47:50.607Z,15.40
2023-04-12T14:50:24.089Z,15.36
2023-04-12T14:52:57.234Z,15.37
2023-04-12T14:55:30.527Z,15.30
2023-04-12T14:58:03.759Z,15.29
2023-04-12T15:00:38.383Z,15.52
2023-04-12T15:03:11.604Z,15.26
2023-04-12T15:05:44.674Z,15.41
2023-04-12T15:08:18.101Z,15.40
2023-04-12T15:10:51.986Z,15.39
2023-04-12T15:13:33.564Z,15.24
2023-04-12T15:16:14.313Z,15.22
2023-04-12T15:18:47.900Z,15.32
2023-04-12T15:21:21.144Z,15.39
2023-04-12T15:23:54.382Z,15.41
2023-04-12T15:26:27.771Z,15.31
2023-04-12T15:29:00.841Z,15.39
2023-04-12T15:31:35.254Z,15.36
2023-04-12T15:34:08.532Z,15.09
2023-04-12T15:36:43.288Z,14.85
2023-04-12T15:39:16.575Z,14.76
2023-04-12T15:41:49.567Z,14.80
2023-04-12T15:44:25.758Z,14.68
2023-04-12T15:47:10.382Z,14.61
2023-04-12T15:49:47.312Z,14.62
2023-04-12T15:52:20.213Z,14.51
2023-04-12T15:54:53.406Z,14.40
2023-04-12T15:57:27.714Z,14.39
2023-04-12T16:00:04.663Z,14.32
2023-04-12T16:02:39.381Z,14.33
2023-04-12T16:05:13.830Z,14.27
2023-04-12T16:07:51.521Z,14.17
2023-04-12T16:10:25.050Z,14.15
2023-04-12T16:12:58.794Z,14.16
2023-04-12T16:15:33.563Z,14.08
2023-04-12T16:18:09.243Z,13.95
2023-04-12T16:20:42.304Z,13.97
2023-04-12T16:23:16.746Z,13.89
2023-04-12T16:25:50.201Z,13.83
2023-04-12T16:28:23.574Z,13.74
2023-04-12T16:30:57.121Z,13.68
2023-04-12T16:33:31.916Z,13.65
2023-04-12T16:36:04.967Z,13.64
2023-04-12T16:38:38.489Z,13.61
2023-04-12T16:41:11.667Z,13.60
2023-04-12T16:43:45.549Z,13.45
2023-04-12T16:46:18.754Z,13.60
2023-04-12T16:48:58.515Z,13.48
2023-04-12T16:51:36.828Z,13.34
2023-04-12T16:54:10.587Z,13.40
2023-04-12T16:56:43.710Z,13.43
2023-04-12T16:59:16.816Z,13.18
2023-04-12T17:01:49.964Z,13.17
2023-04-12T17:04:24.466Z,13.17
2023-04-12T17:06:58.988Z,13.09
2023-04-12T17:09:31.968Z,13.10
2023-04-12T17:12:06.263Z,12.96
2023-04-12T17:14:40.329Z,12.67
2023-04-12T17:17:16.341Z,12.76
2023-04-12T17:19:51.855Z,12.96
2023-04-12T17:22:24.933Z,12.71
2023-04-12T17:24:57.874Z,12.79
2023-04-12T17:27:34.382Z,12.32
2023-04-12T17:30:09.911Z,12.46
2023-04-12T17:32:43.761Z,12.43
2023-04-12T17:35:18.701Z,12.24
2023-04-12T17:37:51.957Z,12.23
2023-04-12T17:40:24.969Z,12.17
2023-04-12T17:42:58.095Z,12.30
2023-04-12T17:45:31.353Z,11.88
2023-04-12T17:48:05.293Z,12.02
2023-04-12T17:50:40.016Z,11.82
2023-04-12T17:53:12.971Z,11.84
2023-04-12T17:55:48.322Z,11.83
2023-04-12T17:58:22.580Z,11.64
2023-04-12T18:00:55.799Z,11.72
2023-04-12T18:03:29.330Z,11.73
2023-04-12T18:06:04.338Z,11.55
2023-04-12T18:08:38.552Z,11.62
2023-04-12T18:11:13.062Z,11.65
2023-04-12T18:13:46.243Z,11.51
2023-04-12T18:16:20.264Z,11.32
2023-04-12T18:18:54.976Z,11.23
2023-04-12T18:21:29.710Z,11.39
2023-04-12T18:24:03.171Z,11.30
2023-04-12T18:26:36.506Z,11.18
2023-04-12T18:29:11.860Z,10.97
2023-04-12T18:31:45.536Z,10.73
2023-04-12T18:34:19.211Z,10.76
2023-04-12T18:36:53.841Z,10.73
2023-04-12T18:39:27.102Z,10.57
2023-04-12T18:42:00.216Z,10.57
2023-04-12T18:44:34.403Z,10.57
2023-04-12T18:47:07.711Z,10.48
2023-04-12T18:49:40.990Z,10.55
2023-04-12T18:52:15.482Z,10.42
2023-04-12T18:54:48.593Z,10.20
2023-04-12T18:57:22.148Z,10.33
2023-04-12T18:59:55.795Z,10.32
2023-04-12T19:02:29.380Z,10.05
2023-04-12T19:05:03.205Z,10.32
2023-04-12T19:07:37.949Z,10.29
2023-04-12T19:10:12.806Z,9.89
2023-04-12T19:12:47.091Z,10.15
2023-04-12T19:15:21.568Z,10.08
2023-04-12T19:17:54.925Z,9.92
2023-04-12T19:20:28.236Z,10.14
2023-04-12T19:23:04.363Z,9.97
2023-04-12T19:25:37.818Z,9.89
2023-04-12T19:28:12.212Z,9.84
2023-04-12T19:30:45.393Z,9.70
2023-04-12T19:33:18.518Z,9.65
2023-04-12T19:35:55.368Z,10.21
2023-04-12T19:38:30.275Z,10.82
2023-04-12T19:41:03.655Z,10.59
2023-04-12T19:43:36.762Z,9.90
2023-04-12T19:46:10.184Z,9.90
2023-04-12T19:48:43.386Z,9.84
2023-04-12T19:51:18.262Z,9.87
2023-04-12T19:53:54.912Z,9.86
2023-04-12T19:56:30.165Z,10.03
2023-04-12T19:59:05.183Z,10.29
2023-04-12T20:01:47.992Z,9.61
2023-04-12T20:04:22.283Z,9.87
2023-04-12T20:06:55.776Z,10.12
2023-04-12T20:09:30.147Z,10.42
2023-04-12T20:12:07.361Z,9.94
2023-04-12T20:14:40.806Z,9.45
2023-04-12T20:17:14.132Z,9.81
2023-04-12T20:19:47.995Z,9.53
2023-04-12T20:22:22.211Z,9.42
2023-04-12T20:24:58.445Z,9.44
2023-04-12T20:27:32.382Z,9.28
2023-04-12T20:30:05.866Z,9.18
2023-04-12T20:32:39.392Z,9.17
2023-04-12T20:35:14.201Z,8.99
2023-04-12T20:37:50.335Z,9.26
2023-04-12T20:40:27.162Z,9.19
2023-04-12T20:43:00.763Z,9.08
2023-04-12T20:45:34.749Z,9.29
2023-04-12T20:48:09.840Z,9.35
2023-04-12T20:50:42.848Z,9.23
2023-04-12T20:53:17.553Z,9.23
2023-04-12T20:55:53.324Z,9.17
2023-04-12T20:58:26.752Z,9.22
2023-04-12T21:01:00.297Z,8.95
2023-04-12T21:03:33.807Z,8.92
2023-04-12T21:06:07.321Z,8.83
2023-04-12T21:08:43.370Z,8.91
2023-04-12T21:11:18.209Z,8.91
2023-04-12T21:13:52.650Z,8.83
2023-04-12T21:16:26.616Z,8.99
2023-04-12T21:19:00.634Z,9.06
2023-04-12T21:21:34.149Z,8.87
2023-04-12T21:24:07.203Z,8.89
2023-04-12T21:26:43.681Z,8.85
2023-04-12T21:29:19.705Z,8.82
2023-04-12T21:31:52.645Z,9.10
2023-04-12T21:34:25.921Z,8.98
2023-04-12T21:37:00.297Z,8.80
2023-04-12T21:39:33.288Z,8.65
2023-04-12T21:42:07.809Z,8.54
2023-04-12T21:44:42.575Z,8.58
2023-04-12T21:47:15.817Z,8.60
2023-04-12T21:49:48.823Z,8.62
2023-04-12T21:52:21.819Z,8.86
2023-04-12T21:54:55.665Z,8.70
2023-04-12T21:57:31.854Z,8.72
2023-04-12T22:00:06.418Z,8.87
2023-04-12T22:02:39.751Z,8.77
2023-04-12T22:05:12.929Z,8.70
2023-04-12T22:07:45.884Z,8.58
2023-04-12T22:10:20.540Z,8.80
2023-04-12T22:12:56.211Z,9.02
2023-04-12T22:15:29.909Z,8.94
2023-04-12T22:18:03.622Z,8.72
2023-04-12T22:20:36.814Z,8.42
2023-04-12T22:23:09.984Z,8.59
2023-04-12T22:25:43.117Z,8.66
2023-04-12T22:28:18.373Z,8.67
2023-04-12T22:30:51.657Z,8.69
2023-04-12T22:33:24.605Z,8.67
2023-04-12T22:35:58.135Z,8.40
2023-04-12T22:38:31.137Z,8.48
2023-04-12T22:41:04.404Z,8.57
2023-04-12T22:43:41.705Z,8.73
2023-04-12T22:46:16.628Z,8.61
2023-04-12T22:48:51.094Z,8.52
2023-04-12T22:51:27.376Z,8.59
2023-04-12T22:54:02.644Z,8.49
2023-04-12T22:56:41.811Z,8.52
2023-04-12T22:59:16.887Z,8.49
2023-04-12T23:01:50.257Z,8.66
2023-04-12T23:04:23.305Z,8.80
2023-04-12T23:06:56.500Z,8.41
2023-04-12T23:09:29.868Z,8.22
2023-04-12T23:12:06.439Z,8.18
2023-04-12T23:14:41.147Z,8.44
2023-04-12T23:17:16.885Z,8.16
2023-04-12T23:19:50.555Z,8.28
2023-04-12T23:22:48.688Z,8.08
2023-04-12T23:25:37.954Z,8.24
2023-04-12T23:28:14.136Z,8.47
2023-04-12T23:30:49.959Z,8.15
2023-04-12T23:33:25.261Z,8.36
2023-04-12T23:35:58.814Z,8.11
2023-04-12T23:38:33.924Z,8.00
2023-04-12T23:41:07.603Z,8.14
2023-04-12T23:43:40.948Z,8.14
2023-04-12T23:46:15.340Z,7.85
2023-04-12T23:48:49.334Z,7.97
2023-04-12T23:51:23.146Z,7.97
2023-04-12T23:53:56.129Z,8.12
2023-04-12T23:56:29.130Z,8.17
2023-04-12T23:59:02.202Z,7.80
